createdAt,value
2022-09-09T00:03:03.480Z,97836.44
2022-09-09T00:06:36.516Z,97836.28
2022-09-09T00:09:56.646Z,97839.31
2022-09-09T00:13:21.087Z,97835.66
2022-09-09T00:16:26.898Z,97835.97
2022-09-09T00:20:01.428Z,97834.56
2022-09-09T00:23:20.696Z,97837.31
2022-09-09T00:26:43.610Z,97840.75
2022-09-09T00:29:58.104Z,97844.38
2022-09-09T00:33:02.666Z,97843.25
2022-09-09T00:36:07.019Z,97845.00
2022-09-09T00:39:36.484Z,97848.97
2022-09-09T00:42:45.656Z,97847.09
2022-09-09T00:46:32.630Z,97841.13
2022-09-09T00:49:34.684Z,97844.03
2022-09-09T00:52:53.370Z,97843.13
2022-09-09T00:55:56.963Z,97847.16
2022-09-09T00:59:11.741Z,97859.91
2022-09-09T01:03:04.536Z,97852.13
2022-09-09T01:06:36.494Z,97857.78
2022-09-09T01:09:57.129Z,97858.81
2022-09-09T01:13:00.411Z,97856.38
2022-09-09T01:16:06.243Z,97853.81
2022-09-09T01:19:11.932Z,97846.31
2022-09-09T01:22:51.299Z,97848.16
2022-09-09T01:26:22.162Z,97846.84
2022-09-09T01:29:24.579Z,97844.66
2022-09-09T01:32:48.206Z,97843.00
2022-09-09T01:36:04.990Z,97845.34
2022-09-09T01:39:13.316Z,97843.97
2022-09-09T01:42:16.922Z,97837.00
2022-09-09T01:45:19.799Z,97843.34
2022-09-09T01:48:22.964Z,97849.50
2022-09-09T01:51:38.135Z,97843.88
2022-09-09T01:54:42.863Z,97842.97
2022-09-09T01:58:20.810Z,97843.19
2022-09-09T02:01:43.739Z,97840.78
2022-09-09T02:04:54.080Z,97838.88
2022-09-09T02:08:08.964Z,97840.78
2022-09-09T02:11:26.065Z,97836.66
2022-09-09T02:14:41.461Z,97837.22
2022-09-09T02:17:44.377Z,97835.88
2022-09-09T02:20:49.632Z,97832.06
2022-09-09T02:23:53.057Z,97838.34
2022-09-09T02:26:55.503Z,97832.78
2022-09-09T02:29:58.007Z,97838.44
2022-09-09T02:33:26.850Z,97830.75
2022-09-09T02:36:34.452Z,97843.09
2022-09-09T02:39:36.750Z,97840.47
2022-09-09T02:42:45.302Z,97841.19
2022-09-09T02:46:09.092Z,97837.28
2022-09-09T02:49:30.502Z,97843.66
2022-09-09T02:52:56.683Z,97839.97
2022-09-09T02:56:05.210Z,97836.59
2022-09-09T02:59:10.995Z,97842.56
2022-09-09T03:02:14.130Z,97838.31
2022-09-09T03:05:18.510Z,97842.41
2022-09-09T03:08:20.990Z,97833.19
2022-09-09T03:11:23.767Z,97840.16
2022-09-09T03:14:26.230Z,97837.00
2022-09-09T03:17:29.338Z,97824.06
2022-09-09T03:20:33.088Z,97820.94
2022-09-09T03:23:35.210Z,97825.94
2022-09-09T03:26:39.224Z,97835.66
2022-09-09T03:29:45.999Z,97826.19
2022-09-09T03:32:51.744Z,97832.38
2022-09-09T03:35:54.091Z,97826.78
2022-09-09T03:38:56.698Z,97837.53
2022-09-09T03:42:03.109Z,97843.50
2022-09-09T03:45:10.264Z,97832.22
2022-09-09T03:48:13.284Z,97831.19
2022-09-09T03:51:16.810Z,97832.84
2022-09-09T03:54:19.259Z,97836.13
2022-09-09T03:57:22.673Z,97847.00
2022-09-09T04:00:25.730Z,97839.47
2022-09-09T04:03:28.994Z,97838.41
2022-09-09T04:06:31.766Z,97834.56
2022-09-09T04:09:35.882Z,97848.88
2022-09-09T04:12:38.155Z,97845.19
2022-09-09T04:15:40.267Z,97841.47
2022-09-09T04:18:43.157Z,97844.81
2022-09-09T04:21:45.764Z,97842.97
2022-09-09T04:24:48.926Z,97845.38
2022-09-09T04:27:57.292Z,97841.00
2022-09-09T04:31:07.139Z,97854.03
2022-09-09T04:34:10.529Z,97845.88
2022-09-09T04:37:12.766Z,97851.78
2022-09-09T04:40:14.996Z,97856.09
2022-09-09T04:43:19.017Z,97853.63
2022-09-09T04:46:23.769Z,97848.28
2022-09-09T04:49:27.027Z,97842.22
2022-09-09T04:52:30.528Z,97848.59
2022-09-09T04:55:33.073Z,97844.34
2022-09-09T04:58:35.381Z,97844.06
2022-09-09T05:01:37.616Z,97859.00
2022-09-09T05:04:41.132Z,97864.06
2022-09-09T05:07:44.372Z,97853.72
2022-09-09T05:10:46.537Z,97847.56
2022-09-09T05:13:48.742Z,97851.66
2022-09-09T05:16:51.020Z,97853.97
2022-09-09T05:19:53.620Z,97863.34
2022-09-09T05:22:57.394Z,97864.25
2022-09-09T05:26:04.495Z,97858.91
2022-09-09T05:29:07.162Z,97859.34
2022-09-09T05:32:13.539Z,97866.78
2022-09-09T05:35:20.053Z,97867.66
2022-09-09T05:38:28.566Z,97855.28
2022-09-09T05:41:32.676Z,97856.66
2022-09-09T05:44:38.236Z,97852.13
2022-09-09T05:47:40.402Z,97860.44
2022-09-09T05:50:53.912Z,97871.28
2022-09-09T05:53:59.439Z,97868.53
2022-09-09T05:57:04.114Z,97871.88
2022-09-09T06:00:07.032Z,97876.84
2022-09-09T06:03:16.689Z,97877.81
2022-09-09T06:06:27.714Z,97883.56
2022-09-09T06:09:32.255Z,97877.19
2022-09-09T06:12:34.389Z,97874.50
2022-09-09T06:15:38.013Z,97868.03
2022-09-09T06:18:40.855Z,97873.03
2022-09-09T06:21:43.628Z,97873.81
2022-09-09T06:24:46.694Z,97878.53
2022-09-09T06:27:51.743Z,97891.94
2022-09-09T06:31:00.644Z,97898.28
2022-09-09T06:34:07.650Z,97898.47
2022-09-09T06:37:10.362Z,97903.47
2022-09-09T06:40:21.365Z,97906.25
2022-09-09T06:43:24.174Z,97907.28
2022-09-09T06:46:32.174Z,97907.25
2022-09-09T06:49:36.052Z,97913.53
2022-09-09T06:52:41.428Z,97909.28
2022-09-09T06:55:45.915Z,97908.00
2022-09-09T06:58:49.821Z,97919.91
2022-09-09T07:01:59.152Z,97912.56
2022-09-09T07:05:01.582Z,97917.22
2022-09-09T07:08:03.900Z,97914.59
2022-09-09T07:11:11.701Z,97908.50
2022-09-09T07:14:16.266Z,97914.47
2022-09-09T07:17:21.878Z,97915.38
2022-09-09T07:20:24.246Z,97912.44
2022-09-09T07:23:27.307Z,97917.22
2022-09-09T07:26:31.226Z,97918.13
2022-09-09T07:29:35.766Z,97923.44
2022-09-09T07:32:38.218Z,97925.19
2022-09-09T07:35:42.883Z,97928.59
2022-09-09T07:38:46.818Z,97922.28
2022-09-09T07:41:50.108Z,97930.09
2022-09-09T07:44:56.071Z,97927.00
2022-09-09T07:47:58.347Z,97925.25
2022-09-09T07:51:20.803Z,97926.75
2022-09-09T07:54:24.909Z,97933.06
2022-09-09T07:57:31.209Z,97926.53
2022-09-09T08:00:34.213Z,97935.66
2022-09-09T08:03:37.063Z,97938.47
2022-09-09T08:06:40.758Z,97946.56
2022-09-09T08:09:44.984Z,97947.66
2022-09-09T08:13:14.856Z,97950.84
2022-09-09T08:16:18.321Z,97950.13
2022-09-09T08:19:20.545Z,97948.44
2022-09-09T08:22:23.101Z,97955.47
2022-09-09T08:25:25.840Z,97957.25
2022-09-09T08:28:28.443Z,97947.31
2022-09-09T08:31:34.191Z,97957.63
2022-09-09T08:34:41.318Z,97959.31
2022-09-09T08:37:51.470Z,97956.09
2022-09-09T08:40:54.799Z,97969.88
2022-09-09T08:44:34.143Z,97961.84
2022-09-09T08:48:07.056Z,97967.88
2022-09-09T08:51:09.990Z,97972.56
2022-09-09T08:54:14.778Z,97976.91
2022-09-09T08:57:23.102Z,97982.72
2022-09-09T09:00:31.799Z,97972.56
2022-09-09T09:04:15.268Z,97977.97
2022-09-09T09:07:36.583Z,97981.41
2022-09-09T09:10:50.095Z,97984.63
2022-09-09T09:14:24.814Z,97987.97
2022-09-09T09:17:32.394Z,97992.41
2022-09-09T09:20:39.869Z,97989.25
2022-09-09T09:24:21.352Z,97997.00
2022-09-09T09:27:37.456Z,98007.53
2022-09-09T09:30:55.320Z,98012.22
2022-09-09T09:33:59.285Z,98002.09
2022-09-09T09:37:21.346Z,98005.50
2022-09-09T09:40:24.316Z,98007.50
2022-09-09T09:43:35.519Z,98001.88
2022-09-09T09:46:41.247Z,98006.19
2022-09-09T09:50:00.867Z,98007.28
2022-09-09T09:53:06.129Z,98009.53
2022-09-09T09:56:13.799Z,98005.84
2022-09-09T09:59:40.287Z,98008.38
2022-09-09T10:03:30.075Z,98007.06
2022-09-09T10:06:38.588Z,98012.25
2022-09-09T10:09:41.755Z,98026.16
2022-09-09T10:13:23.630Z,98024.38
2022-09-09T10:16:47.189Z,98021.94
2022-09-09T10:20:38.624Z,98022.75
2022-09-09T10:23:43.431Z,98033.16
2022-09-09T10:27:01.129Z,98026.34
2022-09-09T10:30:18.350Z,98033.84
2022-09-09T10:33:38.293Z,98040.63
2022-09-09T10:36:45.602Z,98035.97
2022-09-09T10:39:48.957Z,98029.22
2022-09-09T10:42:51.140Z,98035.28
2022-09-09T10:46:48.092Z,98036.22
2022-09-09T10:51:00.586Z,98030.38
2022-09-09T10:54:43.408Z,98034.66
2022-09-09T10:57:49.996Z,98055.94
2022-09-09T11:00:58.997Z,98053.72
2022-09-09T11:04:12.169Z,98048.56
2022-09-09T11:07:18.102Z,98062.03
2022-09-09T11:10:31.598Z,98067.69
2022-09-09T11:13:55.282Z,98072.16
2022-09-09T11:17:08.039Z,98075.03
2022-09-09T11:20:13.421Z,98080.13
2022-09-09T11:23:20.346Z,98079.13
2022-09-09T11:26:47.888Z,98074.88
2022-09-09T11:30:37.828Z,98077.09
2022-09-09T11:34:09.543Z,98081.41
2022-09-09T11:38:00.365Z,98082.13
2022-09-09T11:41:07.733Z,98095.31
2022-09-09T11:44:14.779Z,98091.28
2022-09-09T11:47:31.358Z,98098.81
2022-09-09T11:50:38.421Z,98107.84
2022-09-09T11:53:58.313Z,98107.13
2022-09-09T11:57:00.491Z,98118.47
2022-09-09T12:00:03.701Z,98118.88
2022-09-09T12:03:53.859Z,98107.19
2022-09-09T12:07:09.583Z,98113.69
2022-09-09T12:10:38.205Z,98114.34
2022-09-09T12:16:59.031Z,98115.19
2022-09-09T12:20:08.336Z,98116.53
2022-09-09T12:23:32.968Z,98114.06
2022-09-09T12:26:39.279Z,98118.69
2022-09-09T12:29:46.064Z,98106.22
2022-09-09T12:32:48.192Z,98124.63
2022-09-09T12:35:56.322Z,98130.84
2022-09-09T12:39:00.841Z,98130.53
2022-09-09T12:42:05.376Z,98133.44
2022-09-09T12:45:18.039Z,98128.72
2022-09-09T12:48:20.304Z,98127.31
2022-09-09T12:51:34.760Z,98145.19
2022-09-09T12:54:37.557Z,98140.44
2022-09-09T12:57:39.882Z,98139.34
2022-09-09T13:00:52.027Z,98148.63
2022-09-09T13:03:54.467Z,98168.63
2022-09-09T13:07:10.864Z,98166.56
2022-09-09T13:10:18.071Z,98172.53
2022-09-09T13:13:40.183Z,98172.84
2022-09-09T13:16:43.236Z,98177.94
2022-09-09T13:19:46.511Z,98174.41
2022-09-09T13:22:51.218Z,98185.53
2022-09-09T13:25:59.179Z,98179.72
2022-09-09T13:29:19.055Z,98191.75
2022-09-09T13:32:21.310Z,98194.34
2022-09-09T13:35:24.926Z,98196.53
2022-09-09T13:38:28.755Z,98188.94
2022-09-09T13:41:42.822Z,98202.22
2022-09-09T13:44:44.875Z,98199.69
2022-09-09T13:47:48.657Z,98204.03
2022-09-09T13:51:06.271Z,98210.25
2022-09-09T13:54:12.139Z,98210.03
2022-09-09T13:57:19.747Z,98227.50
2022-09-09T14:00:22.390Z,98223.44
2022-09-09T14:03:24.444Z,98229.03
2022-09-09T14:06:26.530Z,98230.84
2022-09-09T14:09:28.654Z,98234.88
2022-09-09T14:12:30.769Z,98230.09
2022-09-09T14:15:32.877Z,98239.19
2022-09-09T14:18:35.117Z,98226.00
2022-09-09T14:21:37.290Z,98234.88
2022-09-09T14:24:39.349Z,98234.41
2022-09-09T14:27:41.517Z,98237.59
2022-09-09T14:30:45.304Z,98229.56
2022-09-09T14:33:47.510Z,98233.59
2022-09-09T14:36:49.534Z,98235.19
2022-09-09T14:39:51.768Z,98233.19
2022-09-09T14:42:54.494Z,98240.78
2022-09-09T14:45:56.773Z,98225.13
2022-09-09T14:48:58.888Z,98231.72
2022-09-09T14:52:00.994Z,98231.81
2022-09-09T14:55:03.074Z,98237.44
2022-09-09T14:58:05.567Z,98240.09
2022-09-09T15:01:12.757Z,98234.63
2022-09-09T15:04:21.382Z,98240.91
2022-09-09T15:07:23.453Z,98242.38
2022-09-09T15:10:27.515Z,98238.31
2022-09-09T15:13:29.643Z,98242.47
2022-09-09T15:16:33.134Z,98245.63
2022-09-09T15:19:35.211Z,98249.56
2022-09-09T15:22:38.438Z,98242.25
2022-09-09T15:25:51.576Z,98251.44
2022-09-09T15:28:53.731Z,98262.97
2022-09-09T15:31:56.580Z,98261.09
2022-09-09T15:34:58.652Z,98262.59
2022-09-09T15:38:05.918Z,98253.00
2022-09-09T15:41:07.868Z,98269.47
2022-09-09T15:44:13.484Z,98272.69
2022-09-09T15:47:16.225Z,98280.78
2022-09-09T15:50:18.367Z,98278.91
2022-09-09T15:53:21.403Z,98273.28
2022-09-09T15:56:25.610Z,98283.44
2022-09-09T15:59:29.253Z,98281.13
2022-09-09T16:02:31.767Z,98290.53
2022-09-09T16:05:34.627Z,98285.91
2022-09-09T16:08:38.332Z,98281.66
2022-09-09T16:11:40.684Z,98302.56
2022-09-09T16:14:42.742Z,98295.63
2022-09-09T16:17:45.707Z,98293.56
2022-09-09T16:20:57.707Z,98283.19
2022-09-09T16:24:01.464Z,98280.56
2022-09-09T16:27:03.665Z,98281.50
2022-09-09T16:30:06.547Z,98298.94
2022-09-09T16:33:08.939Z,98299.22
2022-09-09T16:36:13.697Z,98318.72
2022-09-09T16:39:19.749Z,98307.50
2022-09-09T16:42:21.786Z,98306.28
2022-09-09T16:45:23.834Z,98322.50
2022-09-09T16:48:25.859Z,98324.69
2022-09-09T16:51:50.391Z,98325.03
2022-09-09T16:54:52.463Z,98320.78
2022-09-09T16:57:55.014Z,98323.34
2022-09-09T17:01:00.494Z,98332.31
2022-09-09T17:04:03.781Z,98334.59
2022-09-09T17:07:05.850Z,98338.31
2022-09-09T17:10:08.806Z,98341.16
2022-09-09T17:13:10.940Z,98340.53
2022-09-09T17:16:14.459Z,98344.75
2022-09-09T17:19:16.874Z,98345.25
2022-09-09T17:22:19.160Z,98348.19
2022-09-09T17:25:24.000Z,98357.56
2022-09-09T17:28:30.730Z,98360.78
2022-09-09T17:31:34.378Z,98363.16
2022-09-09T17:34:36.775Z,98354.38
2022-09-09T17:37:38.878Z,98370.56
2022-09-09T17:40:40.910Z,98371.66
2022-09-09T17:43:43.500Z,98376.75
2022-09-09T17:46:46.388Z,98369.97
2022-09-09T17:49:48.625Z,98378.06
2022-09-09T17:52:50.654Z,98378.59
2022-09-09T17:55:53.212Z,98390.34
2022-09-09T17:58:55.387Z,98385.78
2022-09-09T18:01:58.093Z,98395.72
2022-09-09T18:05:02.405Z,98397.03
2022-09-09T18:08:04.444Z,98395.44
2022-09-09T18:11:07.251Z,98395.16
2022-09-09T18:14:10.688Z,98398.59
2022-09-09T18:17:12.792Z,98407.34
2022-09-09T18:20:15.687Z,98402.09
2022-09-09T18:23:17.721Z,98407.69
2022-09-09T18:26:25.835Z,98410.91
2022-09-09T18:29:28.407Z,98421.56
2022-09-09T18:32:30.553Z,98419.97
2022-09-09T18:35:32.634Z,98426.91
2022-09-09T18:38:35.809Z,98426.63
2022-09-09T18:41:39.883Z,98425.78
2022-09-09T18:44:43.266Z,98429.03
2022-09-09T18:47:48.881Z,98441.00
2022-09-09T18:50:50.910Z,98443.69
2022-09-09T18:54:05.178Z,98444.78
2022-09-09T18:57:07.202Z,98451.44
2022-09-09T19:00:10.397Z,98447.69
2022-09-09T19:03:12.460Z,98457.31
2022-09-09T19:06:21.007Z,98463.16
2022-09-09T19:09:23.301Z,98472.53
2022-09-09T19:12:25.670Z,98461.56
2022-09-09T19:15:29.641Z,98474.09
2022-09-09T19:18:32.423Z,98469.28
2022-09-09T19:21:38.701Z,98465.03
2022-09-09T19:24:40.929Z,98472.75
2022-09-09T19:27:43.234Z,98476.53
2022-09-09T19:30:47.779Z,98482.13
2022-09-09T19:33:50.887Z,98485.06
2022-09-09T19:36:53.285Z,98487.97
2022-09-09T19:39:55.529Z,98490.38
2022-09-09T19:42:57.662Z,98495.44
2022-09-09T19:46:02.437Z,98496.50
2022-09-09T19:49:05.523Z,98499.41
2022-09-09T19:52:07.575Z,98506.31
2022-09-09T19:55:10.819Z,98511.81
2022-09-09T19:58:14.223Z,98507.13
2022-09-09T20:01:26.290Z,98507.94
2022-09-09T20:04:28.426Z,98512.25
2022-09-09T20:07:30.475Z,98509.78
2022-09-09T20:10:32.568Z,98511.72
2022-09-09T20:13:38.853Z,98513.28
2022-09-09T20:16:41.182Z,98515.63
2022-09-09T20:19:43.282Z,98515.63
2022-09-09T20:22:45.334Z,98515.69
2022-09-09T20:25:47.907Z,98524.22
2022-09-09T20:28:51.338Z,98532.44
2022-09-09T20:31:53.673Z,98531.06
2022-09-09T20:34:55.711Z,98531.81
2022-09-09T20:37:57.939Z,98532.09
2022-09-09T20:41:04.327Z,98533.50
2022-09-09T20:44:18.090Z,98543.03
2022-09-09T20:47:20.146Z,98534.56
2022-09-09T20:50:22.208Z,98540.84
2022-09-09T20:53:24.260Z,98550.38
2022-09-09T20:56:27.472Z,98548.34
2022-09-09T20:59:31.272Z,98551.88
2022-09-09T21:02:33.424Z,98558.06
2022-09-09T21:05:35.494Z,98558.53
2022-09-09T21:08:37.708Z,98551.28
2022-09-09T21:11:39.900Z,98557.16
2022-09-09T21:14:41.991Z,98557.84
2022-09-09T21:17:44.030Z,98557.13
2022-09-09T21:20:46.499Z,98556.88
2022-09-09T21:23:49.403Z,98555.72
2022-09-09T21:26:51.544Z,98557.34
2022-09-09T21:29:53.611Z,98555.44
2022-09-09T21:32:55.684Z,98553.84
2022-09-09T21:36:04.699Z,98550.44
2022-09-09T21:39:06.807Z,98555.47
2022-09-09T21:42:09.112Z,98567.91
2022-09-09T21:45:11.254Z,98569.00
2022-09-09T21:48:15.276Z,98571.09
2022-09-09T21:51:17.565Z,98562.34
2022-09-09T21:54:19.878Z,98578.66
2022-09-09T21:57:25.003Z,98580.66
2022-09-09T22:00:27.288Z,98582.97
2022-09-09T22:03:29.355Z,98579.97
2022-09-09T22:06:31.442Z,98590.88
2022-09-09T22:09:34.208Z,98588.81
2022-09-09T22:12:37.309Z,98583.72
2022-09-09T22:15:45.438Z,98587.69
2022-09-09T22:18:56.876Z,98590.41
2022-09-09T22:21:59.157Z,98598.59
2022-09-09T22:25:01.253Z,98599.75
2022-09-09T22:28:04.910Z,98606.31
2022-09-09T22:31:07.103Z,98601.25
2022-09-09T22:34:09.188Z,98604.28
2022-09-09T22:37:11.257Z,98609.88
2022-09-09T22:40:14.349Z,98608.09
2022-09-09T22:43:19.466Z,98612.66
2022-09-09T22:46:22.392Z,98620.56
2022-09-09T22:49:24.569Z,98618.28
2022-09-09T22:52:27.760Z,98618.88
2022-09-09T22:55:29.986Z,98624.75
2022-09-09T22:58:33.109Z,98628.66
2022-09-09T23:01:35.314Z,98634.94
2022-09-09T23:04:39.257Z,98626.75
2022-09-09T23:07:43.059Z,98628.94
2022-09-09T23:10:45.351Z,98630.06
2022-09-09T23:13:52.629Z,98636.09
2022-09-09T23:16:55.568Z,98642.38
2022-09-09T23:19:58.107Z,98626.94
2022-09-09T23:23:01.303Z,98637.72
2022-09-09T23:26:07.133Z,98643.84
2022-09-09T23:29:14.619Z,98646.78
2022-09-09T23:32:16.682Z,98639.94
2022-09-09T23:35:18.714Z,98647.44
2022-09-09T23:38:20.762Z,98641.31
2022-09-09T23:41:22.877Z,98652.81
2022-09-09T23:44:25.675Z,98659.00
2022-09-09T23:47:28.388Z,98662.34
2022-09-09T23:50:30.471Z,98658.00
2022-09-09T23:53:32.965Z,98657.03
2022-09-09T23:56:38.398Z,98654.91
2022-09-09T23:59:40.491Z,98661.88
